sensor_id;sensor_type;location;lat;lon;timestamp;pressure;altitude;pressure_sealevel;temperature;humidity
21182;BME280;10749;46.296;7.524;2022-07-21T00:01:03;95421.13;;;25.17;57.60
21182;BME280;10749;46.296;7.524;2022-07-21T00:03:29;95421.59;;;25.14;57.66
21182;BME280;10749;46.296;7.524;2022-07-21T00:05:55;95417.53;;;25.11;57.97
21182;BME280;10749;46.296;7.524;2022-07-21T00:08:20;95419.34;;;25.06;58.30
21182;BME280;10749;46.296;7.524;2022-07-21T00:10:46;95414.47;;;25.03;58.09
21182;BME280;10749;46.296;7.524;2022-07-21T00:13:11;95417.94;;;24.98;58.17
21182;BME280;10749;46.296;7.524;2022-07-21T00:15:37;95415.97;;;24.94;58.65
21182;BME280;10749;46.296;7.524;2022-07-21T00:18:03;95424.69;;;24.96;58.10
21182;BME280;10749;46.296;7.524;2022-07-21T00:20:28;95420.63;;;24.98;58.23
21182;BME280;10749;46.296;7.524;2022-07-21T00:22:56;95422.59;;;25.03;58.39
21182;BME280;10749;46.296;7.524;2022-07-21T00:25:21;95417.16;;;25.03;58.25
21182;BME280;10749;46.296;7.524;2022-07-21T00:27:46;95418.81;;;25.04;58.32
21182;BME280;10749;46.296;7.524;2022-07-21T00:30:12;95423.66;;;25.02;58.15
21182;BME280;10749;46.296;7.524;2022-07-21T00:32:38;95422.03;;;25.01;58.07
21182;BME280;10749;46.296;7.524;2022-07-21T00:35:05;95422.50;;;24.93;58.38
21182;BME280;10749;46.296;7.524;2022-07-21T00:37:31;95418.56;;;24.83;58.57
21182;BME280;10749;46.296;7.524;2022-07-21T00:39:57;95418.31;;;24.85;58.35
21182;BME280;10749;46.296;7.524;2022-07-21T00:42:27;95418.28;;;24.80;58.29
21182;BME280;10749;46.296;7.524;2022-07-21T00:44:52;95415.28;;;24.81;58.45
21182;BME280;10749;46.296;7.524;2022-07-21T00:47:22;95415.66;;;24.63;59.07
21182;BME280;10749;46.296;7.524;2022-07-21T00:49:48;95419.28;;;24.52;59.68
21182;BME280;10749;46.296;7.524;2022-07-21T00:52:14;95415.81;;;24.57;59.75
21182;BME280;10749;46.296;7.524;2022-07-21T00:54:39;95421.06;;;24.63;59.16
21182;BME280;10749;46.296;7.524;2022-07-21T00:57:05;95415.66;;;24.63;58.82
21182;BME280;10749;46.296;7.524;2022-07-21T00:59:30;95415.66;;;24.63;58.05
21182;BME280;10749;46.296;7.524;2022-07-21T01:01:56;95417.78;;;24.61;58.88
21182;BME280;10749;46.296;7.524;2022-07-21T01:04:22;95419.94;;;24.59;58.81
21182;BME280;10749;46.296;7.524;2022-07-21T01:06:47;95411.47;;;24.56;58.77
21182;BME280;10749;46.296;7.524;2022-07-21T01:09:13;95413.81;;;24.47;59.21
21182;BME280;10749;46.296;7.524;2022-07-21T01:11:39;95428.50;;;24.51;58.99
21182;BME280;10749;46.296;7.524;2022-07-21T01:14:05;95422.75;;;24.48;58.95
21182;BME280;10749;46.296;7.524;2022-07-21T01:16:31;95421.88;;;24.42;59.61
21182;BME280;10749;46.296;7.524;2022-07-21T01:18:57;95426.72;;;24.40;59.49
21182;BME280;10749;46.296;7.524;2022-07-21T01:21:39;95421.94;;;24.47;59.24
21182;BME280;10749;46.296;7.524;2022-07-21T01:24:06;95411.66;;;24.49;59.25
21182;BME280;10749;46.296;7.524;2022-07-21T01:26:40;95413.00;;;24.47;59.24
21182;BME280;10749;46.296;7.524;2022-07-21T01:29:06;95414.06;;;24.46;59.44
21182;BME280;10749;46.296;7.524;2022-07-21T01:31:31;95418.09;;;24.43;59.40
21182;BME280;10749;46.296;7.524;2022-07-21T01:33:57;95423.56;;;24.48;58.46
21182;BME280;10749;46.296;7.524;2022-07-21T01:36:22;95420.31;;;24.46;58.82
21182;BME280;10749;46.296;7.524;2022-07-21T01:38:47;95423.00;;;24.46;58.52
21182;BME280;10749;46.296;7.524;2022-07-21T01:41:31;95423.84;;;24.47;58.25
21182;BME280;10749;46.296;7.524;2022-07-21T01:44:05;95425.19;;;24.49;58.53
21182;BME280;10749;46.296;7.524;2022-07-21T01:46:33;95425.78;;;24.51;58.62
21182;BME280;10749;46.296;7.524;2022-07-21T01:48:59;95420.91;;;24.53;58.57
21182;BME280;10749;46.296;7.524;2022-07-21T01:51:25;95427.66;;;24.51;59.12
21182;BME280;10749;46.296;7.524;2022-07-21T01:53:51;95418.97;;;24.49;59.08
21182;BME280;10749;46.296;7.524;2022-07-21T01:56:20;95419.25;;;24.47;58.92
21182;BME280;10749;46.296;7.524;2022-07-21T01:58:46;95428.50;;;24.51;59.10
21182;BME280;10749;46.296;7.524;2022-07-21T02:01:12;95427.91;;;24.49;59.34
21182;BME280;10749;46.296;7.524;2022-07-21T02:03:39;95418.34;;;24.42;59.34
21182;BME280;10749;46.296;7.524;2022-07-21T02:06:05;95417.72;;;24.34;59.70
21182;BME280;10749;46.296;7.524;2022-07-21T02:08:31;95418.72;;;24.28;59.69
21182;BME280;10749;46.296;7.524;2022-07-21T02:10:57;95417.38;;;24.31;59.61
21182;BME280;10749;46.296;7.524;2022-07-21T02:13:23;95414.19;;;24.34;59.38
21182;BME280;10749;46.296;7.524;2022-07-21T02:15:48;95412.50;;;24.28;59.61
21182;BME280;10749;46.296;7.524;2022-07-21T02:18:14;95414.88;;;24.24;59.77
21182;BME280;10749;46.296;7.524;2022-07-21T02:20:39;95416.75;;;24.24;59.93
21182;BME280;10749;46.296;7.524;2022-07-21T02:23:04;95410.81;;;24.22;59.96
21182;BME280;10749;46.296;7.524;2022-07-21T02:25:30;95413.00;;;24.25;59.85
21182;BME280;10749;46.296;7.524;2022-07-21T02:27:55;95403.81;;;24.26;59.71
21182;BME280;10749;46.296;7.524;2022-07-21T02:30:20;95400.84;;;24.27;59.84
21182;BME280;10749;46.296;7.524;2022-07-21T02:32:46;95402.19;;;24.25;60.23
21182;BME280;10749;46.296;7.524;2022-07-21T02:35:11;95403.25;;;24.24;60.01
21182;BME280;10749;46.296;7.524;2022-07-21T02:37:37;95399.16;;;24.21;60.16
21182;BME280;10749;46.296;7.524;2022-07-21T02:40:03;95399.09;;;24.16;60.51
21182;BME280;10749;46.296;7.524;2022-07-21T02:42:29;95399.09;;;24.16;60.71
21182;BME280;10749;46.296;7.524;2022-07-21T02:44:54;95392.41;;;24.24;60.24
21182;BME280;10749;46.296;7.524;2022-07-21T02:47:19;95396.78;;;24.25;60.29
21182;BME280;10749;46.296;7.524;2022-07-21T02:49:45;95394.63;;;24.27;60.25
21182;BME280;10749;46.296;7.524;2022-07-21T02:52:11;95399.53;;;24.30;60.04
21182;BME280;10749;46.296;7.524;2022-07-21T02:54:36;95390.84;;;24.28;60.25
21182;BME280;10749;46.296;7.524;2022-07-21T02:57:02;95390.34;;;24.31;60.11
21182;BME280;10749;46.296;7.524;2022-07-21T02:59:27;95389.72;;;24.24;59.55
21182;BME280;10749;46.296;7.524;2022-07-21T03:01:52;95384.75;;;24.16;60.42
21182;BME280;10749;46.296;7.524;2022-07-21T03:04:18;95392.09;;;24.20;60.43
21182;BME280;10749;46.296;7.524;2022-07-21T03:06:43;95389.47;;;24.25;60.63
21182;BME280;10749;46.296;7.524;2022-07-21T03:09:09;95384.94;;;24.31;60.57
21182;BME280;10749;46.296;7.524;2022-07-21T03:11:34;95389.53;;;24.30;60.16
21182;BME280;10749;46.296;7.524;2022-07-21T03:14:00;95383.13;;;24.36;59.69
21182;BME280;10749;46.296;7.524;2022-07-21T03:16:25;95381.53;;;24.41;59.74
21182;BME280;10749;46.296;7.524;2022-07-21T03:18:51;95389.13;;;24.44;59.34
21182;BME280;10749;46.296;7.524;2022-07-21T03:21:16;95392.06;;;24.37;59.84
21182;BME280;10749;46.296;7.524;2022-07-21T03:23:41;95396.63;;;24.36;59.09
21182;BME280;10749;46.296;7.524;2022-07-21T03:26:11;95393.09;;;24.36;59.34
21182;BME280;10749;46.296;7.524;2022-07-21T03:28:37;95386.06;;;24.35;58.96
21182;BME280;10749;46.296;7.524;2022-07-21T03:31:02;95396.63;;;24.36;59.05
21182;BME280;10749;46.296;7.524;2022-07-21T03:33:27;95392.56;;;24.34;59.34
21182;BME280;10749;46.296;7.524;2022-07-21T03:35:53;95395.28;;;24.34;59.68
21182;BME280;10749;46.296;7.524;2022-07-21T03:38:18;95389.03;;;24.33;59.17
21182;BME280;10749;46.296;7.524;2022-07-21T03:40:43;95407.38;;;24.31;58.96
21182;BME280;10749;46.296;7.524;2022-07-21T03:43:08;95403.00;;;24.25;59.42
21182;BME280;10749;46.296;7.524;2022-07-21T03:45:35;95401.03;;;24.21;59.55
21182;BME280;10749;46.296;7.524;2022-07-21T03:48:03;95400.47;;;24.19;59.70
21182;BME280;10749;46.296;7.524;2022-07-21T03:50:30;95399.31;;;24.15;59.87
21182;BME280;10749;46.296;7.524;2022-07-21T03:52:55;95402.50;;;24.12;60.14
21182;BME280;10749;46.296;7.524;2022-07-21T03:55:20;95404.16;;;24.13;60.19
21182;BME280;10749;46.296;7.524;2022-07-21T03:57:52;95404.66;;;24.10;60.12
21182;BME280;10749;46.296;7.524;2022-07-21T04:00:23;95404.16;;;24.13;60.33
21182;BME280;10749;46.296;7.524;2022-07-21T04:02:49;95411.28;;;24.19;59.91
21182;BME280;10749;46.296;7.524;2022-07-21T04:05:16;95406.47;;;24.21;60.09
21182;BME280;10749;46.296;7.524;2022-07-21T04:07:44;95408.34;;;24.20;60.04
21182;BME280;10749;46.296;7.524;2022-07-21T04:10:12;95404.06;;;24.24;60.02
21182;BME280;10749;46.296;7.524;2022-07-21T04:12:37;95415.47;;;24.26;59.96
21182;BME280;10749;46.296;7.524;2022-07-21T04:15:05;95413.00;;;24.25;59.91
21182;BME280;10749;46.296;7.524;2022-07-21T04:17:30;95420.06;;;24.26;59.86
21182;BME280;10749;46.296;7.524;2022-07-21T04:19:56;95421.34;;;24.23;59.78
21182;BME280;10749;46.296;7.524;2022-07-21T04:22:21;95423.81;;;24.25;59.51
21182;BME280;10749;46.296;7.524;2022-07-21T04:24:46;95424.31;;;24.22;59.90
21182;BME280;10749;46.296;7.524;2022-07-21T04:27:11;95426.44;;;24.20;59.91
21182;BME280;10749;46.296;7.524;2022-07-21T04:29:37;95420.72;;;24.16;59.91
21182;BME280;10749;46.296;7.524;2022-07-21T04:32:02;95417.41;;;24.14;60.01
21182;BME280;10749;46.296;7.524;2022-07-21T04:34:28;95423.09;;;24.13;60.05
21182;BME280;10749;46.296;7.524;2022-07-21T04:36:54;95424.97;;;24.12;59.84
21182;BME280;10749;46.296;7.524;2022-07-21T04:39:19;95426.22;;;24.05;60.08
21182;BME280;10749;46.296;7.524;2022-07-21T04:41:45;95416.22;;;24.05;59.94
21182;BME280;10749;46.296;7.524;2022-07-21T04:44:10;95428.75;;;23.95;60.44
21182;BME280;10749;46.296;7.524;2022-07-21T04:46:35;95425.63;;;24.03;60.32
21182;BME280;10749;46.296;7.524;2022-07-21T04:49:01;95431.69;;;24.10;60.39
21182;BME280;10749;46.296;7.524;2022-07-21T04:51:26;95420.09;;;24.14;60.64
21182;BME280;10749;46.296;7.524;2022-07-21T04:53:51;95431.34;;;24.23;60.26
21182;BME280;10749;46.296;7.524;2022-07-21T04:56:16;95431.19;;;24.29;60.08
21182;BME280;10749;46.296;7.524;2022-07-21T04:58:42;95430.44;;;24.34;59.77
21182;BME280;10749;46.296;7.524;2022-07-21T05:01:07;95431.81;;;24.36;59.66
21182;BME280;10749;46.296;7.524;2022-07-21T05:03:32;95441.38;;;24.44;59.63
21182;BME280;10749;46.296;7.524;2022-07-21T05:05:58;95442.50;;;24.48;59.61
21182;BME280;10749;46.296;7.524;2022-07-21T05:08:23;95442.50;;;24.48;59.33
21182;BME280;10749;46.296;7.524;2022-07-21T05:10:51;95444.66;;;24.46;59.09
21182;BME280;10749;46.296;7.524;2022-07-21T05:13:16;95439.75;;;24.43;59.09
21182;BME280;10749;46.296;7.524;2022-07-21T05:15:42;95443.25;;;24.44;59.25
21182;BME280;10749;46.296;7.524;2022-07-21T05:18:07;95441.88;;;24.41;59.17
21182;BME280;10749;46.296;7.524;2022-07-21T05:20:33;95443.44;;;24.37;59.43
21182;BME280;10749;46.296;7.524;2022-07-21T05:22:58;95447.72;;;24.33;59.55
21182;BME280;10749;46.296;7.524;2022-07-21T05:25:23;95441.19;;;24.29;59.67
21182;BME280;10749;46.296;7.524;2022-07-21T05:27:49;95439.53;;;24.28;59.75
21182;BME280;10749;46.296;7.524;2022-07-21T05:30:14;95434.88;;;24.23;59.80
21182;BME280;10749;46.296;7.524;2022-07-21T05:32:39;95434.13;;;24.28;59.87
21182;BME280;10749;46.296;7.524;2022-07-21T05:35:05;95438.88;;;24.38;59.53
21182;BME280;10749;46.296;7.524;2022-07-21T05:37:36;95448.34;;;24.40;59.76
21182;BME280;10749;46.296;7.524;2022-07-21T05:40:02;95442.94;;;24.40;59.68
21182;BME280;10749;46.296;7.524;2022-07-21T05:42:27;95440.31;;;24.45;59.63
21182;BME280;10749;46.296;7.524;2022-07-21T05:44:52;95442.03;;;24.51;59.46
21182;BME280;10749;46.296;7.524;2022-07-21T05:47:18;95438.81;;;24.54;59.19
21182;BME280;10749;46.296;7.524;2022-07-21T05:49:43;95439.94;;;24.58;59.49
21182;BME280;10749;46.296;7.524;2022-07-21T05:52:08;95439.94;;;24.58;59.33
21182;BME280;10749;46.296;7.524;2022-07-21T05:54:34;95435.88;;;24.61;59.35
21182;BME280;10749;46.296;7.524;2022-07-21T05:56:59;95442.72;;;24.63;59.43
21182;BME280;10749;46.296;7.524;2022-07-21T05:59:24;95458.94;;;24.63;59.47
21182;BME280;10749;46.296;7.524;2022-07-21T06:01:50;95452.19;;;24.66;59.27
21182;BME280;10749;46.296;7.524;2022-07-21T06:04:15;95450.31;;;24.66;59.59
21182;BME280;10749;46.296;7.524;2022-07-21T06:06:40;95452.50;;;24.69;59.77
21182;BME280;10749;46.296;7.524;2022-07-21T06:09:05;95456.91;;;24.75;59.48
21182;BME280;10749;46.296;7.524;2022-07-21T06:11:31;95453.47;;;24.80;59.32
21182;BME280;10749;46.296;7.524;2022-07-21T06:13:56;95456.22;;;24.85;59.26
21182;BME280;10749;46.296;7.524;2022-07-21T06:16:21;95460.88;;;24.90;59.37
21182;BME280;10749;46.296;7.524;2022-07-21T06:18:47;95459.81;;;24.91;59.28
21182;BME280;10749;46.296;7.524;2022-07-21T06:21:12;95460.94;;;24.95;59.11
21182;BME280;10749;46.296;7.524;2022-07-21T06:23:37;95455.00;;;24.93;59.08
21182;BME280;10749;46.296;7.524;2022-07-21T06:26:03;95452.75;;;24.90;59.37
21182;BME280;10749;46.296;7.524;2022-07-21T06:28:28;95460.34;;;24.88;59.19
21182;BME280;10749;46.296;7.524;2022-07-21T06:30:53;95454.41;;;24.91;59.39
21182;BME280;10749;46.296;7.524;2022-07-21T06:33:20;95465.84;;;24.98;59.17
21182;BME280;10749;46.296;7.524;2022-07-21T06:35:45;95464.84;;;25.04;59.17
21182;BME280;10749;46.296;7.524;2022-07-21T06:38:11;95467.63;;;25.09;58.81
21182;BME280;10749;46.296;7.524;2022-07-21T06:40:36;95470.06;;;25.10;58.70
21182;BME280;10749;46.296;7.524;2022-07-21T06:43:01;95464.94;;;25.14;58.92
21182;BME280;10749;46.296;7.524;2022-07-21T06:45:27;95462.19;;;25.09;58.45
21182;BME280;10749;46.296;7.524;2022-07-21T06:48:03;95471.84;;;25.00;58.90
21182;BME280;10749;46.296;7.524;2022-07-21T06:50:29;95464.31;;;25.07;58.75
21182;BME280;10749;46.296;7.524;2022-07-21T06:52:55;95463.16;;;25.24;58.80
21182;BME280;10749;46.296;7.524;2022-07-21T06:55:20;95468.94;;;25.33;58.42
21182;BME280;10749;46.296;7.524;2022-07-21T06:57:46;95470.59;;;25.39;58.33
21182;BME280;10749;46.296;7.524;2022-07-21T07:00:11;95465.78;;;25.41;58.36
21182;BME280;10749;46.296;7.524;2022-07-21T07:02:37;95466.94;;;25.50;57.88
21182;BME280;10749;46.296;7.524;2022-07-21T07:05:03;95470.81;;;25.54;58.13
21182;BME280;10749;46.296;7.524;2022-07-21T07:07:28;95468.94;;;25.60;58.26
21182;BME280;10749;46.296;7.524;2022-07-21T07:09:55;95475.81;;;25.67;58.12
21182;BME280;10749;46.296;7.524;2022-07-21T07:12:21;95468.50;;;25.73;57.92
21182;BME280;10749;46.296;7.524;2022-07-21T07:14:46;95463.94;;;25.79;57.70
21182;BME280;10749;46.296;7.524;2022-07-21T07:17:15;95467.78;;;25.83;57.65
21182;BME280;10749;46.296;7.524;2022-07-21T07:19:40;95465.41;;;25.91;57.83
21182;BME280;10749;46.296;7.524;2022-07-21T07:22:06;95458.09;;;25.97;57.47
21182;BME280;10749;46.296;7.524;2022-07-21T07:24:31;95465.47;;;26.01;57.18
21182;BME280;10749;46.296;7.524;2022-07-21T07:26:56;95464.91;;;25.99;57.12
21182;BME280;10749;46.296;7.524;2022-07-21T07:29:22;95471.13;;;25.95;56.84
21182;BME280;10749;46.296;7.524;2022-07-21T07:31:47;95461.00;;;25.85;56.55
21182;BME280;10749;46.296;7.524;2022-07-21T07:34:12;95461.97;;;25.69;56.48
21182;BME280;10749;46.296;7.524;2022-07-21T07:36:38;95462.78;;;25.69;56.56
21182;BME280;10749;46.296;7.524;2022-07-21T07:39:03;95462.06;;;25.79;56.87
21182;BME280;10749;46.296;7.524;2022-07-21T07:41:29;95458.25;;;25.80;56.89
21182;BME280;10749;46.296;7.524;2022-07-21T07:43:56;95461.81;;;25.86;56.81
21182;BME280;10749;46.296;7.524;2022-07-21T07:46:23;95453.94;;;25.84;56.79
21182;BME280;10749;46.296;7.524;2022-07-21T07:48:48;95456.97;;;25.88;56.40
21182;BME280;10749;46.296;7.524;2022-07-21T07:51:14;95456.50;;;25.96;56.65
21182;BME280;10749;46.296;7.524;2022-07-21T07:53:40;95460.84;;;26.02;56.93
21182;BME280;10749;46.296;7.524;2022-07-21T07:56:06;95459.06;;;26.17;56.98
21182;BME280;10749;46.296;7.524;2022-07-21T07:58:32;95449.97;;;26.34;56.58
21182;BME280;10749;46.296;7.524;2022-07-21T08:00:58;95455.69;;;26.42;56.56
21182;BME280;10749;46.296;7.524;2022-07-21T08:03:25;95448.59;;;26.31;56.12
21182;BME280;10749;46.296;7.524;2022-07-21T08:05:52;95445.84;;;26.26;56.23
21182;BME280;10749;46.296;7.524;2022-07-21T08:08:18;95444.81;;;26.32;56.08
21182;BME280;10749;46.296;7.524;2022-07-21T08:10:44;95439.38;;;26.32;55.92
21182;BME280;10749;46.296;7.524;2022-07-21T08:13:16;95444.91;;;26.52;56.39
21182;BME280;10749;46.296;7.524;2022-07-21T08:15:43;95440.63;;;26.72;56.52
21182;BME280;10749;46.296;7.524;2022-07-21T08:18:08;95446.16;;;26.87;55.93
21182;BME280;10749;46.296;7.524;2022-07-21T08:20:35;95435.56;;;26.85;55.31
21182;BME280;10749;46.296;7.524;2022-07-21T08:23:01;95437.91;;;26.72;55.55
21182;BME280;10749;46.296;7.524;2022-07-21T08:25:26;95429.78;;;26.77;55.56
21182;BME280;10749;46.296;7.524;2022-07-21T08:27:52;95428.22;;;26.86;55.81
21182;BME280;10749;46.296;7.524;2022-07-21T08:30:17;95428.78;;;26.93;55.32
21182;BME280;10749;46.296;7.524;2022-07-21T08:32:42;95416.78;;;26.79;54.47
21182;BME280;10749;46.296;7.524;2022-07-21T08:35:08;95425.66;;;26.54;54.76
21182;BME280;10749;46.296;7.524;2022-07-21T08:37:35;95416.19;;;26.72;55.14
21182;BME280;10749;46.296;7.524;2022-07-21T08:40:02;95413.03;;;26.90;55.02
21182;BME280;10749;46.296;7.524;2022-07-21T08:42:27;95413.03;;;26.90;53.71
21182;BME280;10749;46.296;7.524;2022-07-21T08:44:53;95409.16;;;26.81;54.93
21182;BME280;10749;46.296;7.524;2022-07-21T08:47:19;95404.88;;;26.85;54.83
21182;BME280;10749;46.296;7.524;2022-07-21T08:49:46;95407.34;;;27.01;54.91
21182;BME280;10749;46.296;7.524;2022-07-21T08:52:11;95404.38;;;27.13;55.17
21182;BME280;10749;46.296;7.524;2022-07-21T08:54:37;95404.94;;;27.10;54.67
21182;BME280;10749;46.296;7.524;2022-07-21T08:57:03;95414.72;;;27.21;54.93
21182;BME280;10749;46.296;7.524;2022-07-21T08:59:28;95399.25;;;27.32;54.89
21182;BME280;10749;46.296;7.524;2022-07-21T09:01:54;95403.06;;;27.41;54.57
21182;BME280;10749;46.296;7.524;2022-07-21T09:04:31;95396.31;;;27.48;54.73
21182;BME280;10749;46.296;7.524;2022-07-21T09:07:01;95393.81;;;27.32;53.59
21182;BME280;10749;46.296;7.524;2022-07-21T09:09:28;95394.88;;;27.26;54.21
21182;BME280;10749;46.296;7.524;2022-07-21T09:11:54;95391.63;;;27.03;53.36
21182;BME280;10749;46.296;7.524;2022-07-21T09:14:34;95382.00;;;26.81;52.13
21182;BME280;10749;46.296;7.524;2022-07-21T09:17:02;95382.00;;;26.76;53.04
21182;BME280;10749;46.296;7.524;2022-07-21T09:19:33;95383.16;;;26.90;53.52
21182;BME280;10749;46.296;7.524;2022-07-21T09:22:03;95376.94;;;27.15;52.50
21182;BME280;10749;46.296;7.524;2022-07-21T09:24:34;95383.75;;;27.12;52.95
21182;BME280;10749;46.296;7.524;2022-07-21T09:27:10;95370.16;;;27.37;53.46
21182;BME280;10749;46.296;7.524;2022-07-21T09:29:46;95376.69;;;27.46;53.34
21182;BME280;10749;46.296;7.524;2022-07-21T09:32:22;95371.81;;;27.69;53.42
21182;BME280;10749;46.296;7.524;2022-07-21T09:34:53;95366.41;;;27.48;51.72
21182;BME280;10749;46.296;7.524;2022-07-21T09:37:21;95371.53;;;27.35;51.96
21182;BME280;10749;46.296;7.524;2022-07-21T09:39:58;95356.06;;;27.61;52.91
21182;BME280;10749;46.296;7.524;2022-07-21T09:42:30;95357.94;;;27.80;52.82
21182;BME280;10749;46.296;7.524;2022-07-21T09:44:58;95356.63;;;27.52;51.19
21182;BME280;10749;46.296;7.524;2022-07-21T09:47:26;95352.22;;;27.67;51.82
21182;BME280;10749;46.296;7.524;2022-07-21T09:49:53;95349.50;;;27.72;51.63
21182;BME280;10749;46.296;7.524;2022-07-21T09:54:53;95346.47;;;27.98;51.98
21182;BME280;10749;46.296;7.524;2022-07-21T09:57:20;95342.91;;;28.13;52.02
21182;BME280;10749;46.296;7.524;2022-07-21T09:59:47;95338.84;;;28.16;51.76
21182;BME280;10749;46.296;7.524;2022-07-21T10:04:41;95327.88;;;28.31;51.72
21182;BME280;10749;46.296;7.524;2022-07-21T10:07:07;95329.53;;;28.32;51.43
21182;BME280;10749;46.296;7.524;2022-07-21T10:09:32;95323.25;;;28.36;51.27
21182;BME280;10749;46.296;7.524;2022-07-21T10:11:59;95315.59;;;28.43;51.56
21182;BME280;10749;46.296;7.524;2022-07-21T10:14:25;95311.69;;;28.55;51.65
21182;BME280;10749;46.296;7.524;2022-07-21T10:16:50;95307.81;;;28.66;51.42
21182;BME280;10749;46.296;7.524;2022-07-21T10:24:31;95304.09;;;28.52;49.24
21182;BME280;10749;46.296;7.524;2022-07-21T10:27:09;95294.84;;;28.53;50.55
21182;BME280;10749;46.296;7.524;2022-07-21T10:29:48;95298.84;;;28.65;50.69
21182;BME280;10749;46.296;7.524;2022-07-21T10:32:18;95287.34;;;28.78;50.50
21182;BME280;10749;46.296;7.524;2022-07-21T10:34:43;95283.72;;;28.49;46.99
21182;BME280;10749;46.296;7.524;2022-07-21T10:37:09;95288.81;;;28.61;49.28
21182;BME280;10749;46.296;7.524;2022-07-21T10:39:35;95282.78;;;28.74;49.14
21182;BME280;10749;46.296;7.524;2022-07-21T10:42:14;95282.03;;;28.97;49.71
21182;BME280;10749;46.296;7.524;2022-07-21T10:44:44;95278.13;;;29.08;49.41
21182;BME280;10749;46.296;7.524;2022-07-21T10:47:15;95272.03;;;29.21;49.58
21182;BME280;10749;46.296;7.524;2022-07-21T10:49:52;95269.53;;;29.25;48.96
21182;BME280;10749;46.296;7.524;2022-07-21T10:58:14;95259.50;;;29.20;48.42
21182;BME280;10749;46.296;7.524;2022-07-21T11:01:04;95259.47;;;29.25;48.56
21182;BME280;10749;46.296;7.524;2022-07-21T11:03:38;95257.28;;;29.27;46.24
21182;BME280;10749;46.296;7.524;2022-07-21T11:06:21;95262.13;;;29.36;47.65
21182;BME280;10749;46.296;7.524;2022-07-21T11:11:25;95247.66;;;29.64;48.15
21182;BME280;10749;46.296;7.524;2022-07-21T11:19:36;95243.56;;;29.90;47.42
21182;BME280;10749;46.296;7.524;2022-07-21T11:22:08;95239.63;;;30.01;47.05
21182;BME280;10749;46.296;7.524;2022-07-21T11:24:35;95235.66;;;30.12;47.21
21182;BME280;10749;46.296;7.524;2022-07-21T11:27:03;95228.72;;;30.20;46.96
21182;BME280;10749;46.296;7.524;2022-07-21T11:29:30;95231.13;;;30.27;47.00
21182;BME280;10749;46.296;7.524;2022-07-21T11:31:56;95223.59;;;30.18;44.58
21182;BME280;10749;46.296;7.524;2022-07-21T11:34:24;95224.53;;;30.27;46.34
21182;BME280;10749;46.296;7.524;2022-07-21T11:37:02;95218.31;;;30.46;46.70
21182;BME280;10749;46.296;7.524;2022-07-21T11:39:27;95213.28;;;30.53;45.63
21182;BME280;10749;46.296;7.524;2022-07-21T11:42:09;95214.25;;;30.62;46.00
21182;BME280;10749;46.296;7.524;2022-07-21T11:44:38;95202.94;;;30.50;44.59
21182;BME280;10749;46.296;7.524;2022-07-21T11:47:05;95201.78;;;30.56;45.25
21182;BME280;10749;46.296;7.524;2022-07-21T11:49:32;95196.47;;;30.46;44.30
21182;BME280;10749;46.296;7.524;2022-07-21T11:52:00;95190.09;;;30.69;45.17
21182;BME280;10749;46.296;7.524;2022-07-21T11:54:32;95183.06;;;30.82;45.08
21182;BME280;10749;46.296;7.524;2022-07-21T11:56:59;95180.97;;;30.92;44.62
21182;BME280;10749;46.296;7.524;2022-07-21T11:59:26;95167.16;;;31.02;44.78
21182;BME280;10749;46.296;7.524;2022-07-21T12:02:01;95171.44;;;31.08;44.63
21182;BME280;10749;46.296;7.524;2022-07-21T12:04:33;95167.41;;;31.20;44.42
21182;BME280;10749;46.296;7.524;2022-07-21T12:06:59;95160.53;;;31.36;44.33
21182;BME280;10749;46.296;7.524;2022-07-21T12:09:25;95153.63;;;31.25;39.51
21182;BME280;10749;46.296;7.524;2022-07-21T12:11:51;95156.09;;;31.26;42.89
21182;BME280;10749;46.296;7.524;2022-07-21T12:14:17;95149.81;;;31.26;43.16
21182;BME280;10749;46.296;7.524;2022-07-21T12:16:50;95148.28;;;31.33;41.39
21182;BME280;10749;46.296;7.524;2022-07-21T12:19:17;95149.06;;;31.20;38.62
21182;BME280;10749;46.296;7.524;2022-07-21T12:21:51;95145.75;;;31.37;42.02
21182;BME280;10749;46.296;7.524;2022-07-21T12:24:20;95145.28;;;31.62;42.21
21182;BME280;10749;46.296;7.524;2022-07-21T12:26:47;95132.41;;;31.76;42.46
21182;BME280;10749;46.296;7.524;2022-07-21T12:29:26;95135.53;;;31.97;42.14
21182;BME280;10749;46.296;7.524;2022-07-21T12:31:52;95132.38;;;32.03;41.96
21182;BME280;10749;46.296;7.524;2022-07-21T12:34:17;95132.28;;;32.09;41.52
21182;BME280;10749;46.296;7.524;2022-07-21T12:36:45;95125.09;;;31.85;38.66
21182;BME280;10749;46.296;7.524;2022-07-21T12:39:22;95122.72;;;32.06;41.37
21182;BME280;10749;46.296;7.524;2022-07-21T12:42:08;95109.47;;;32.13;36.90
21182;BME280;10749;46.296;7.524;2022-07-21T12:44:35;95114.66;;;31.87;38.79
21182;BME280;10749;46.296;7.524;2022-07-21T12:47:32;95101.91;;;32.32;40.63
21182;BME280;10749;46.296;7.524;2022-07-21T12:50:00;95106.75;;;32.58;40.19
21182;BME280;10749;46.296;7.524;2022-07-21T12:52:27;95104.34;;;32.78;40.47
21182;BME280;10749;46.296;7.524;2022-07-21T12:54:54;95096.66;;;32.89;40.09
21182;BME280;10749;46.296;7.524;2022-07-21T12:57:19;95099.34;;;33.03;40.41
21182;BME280;10749;46.296;7.524;2022-07-21T12:59:45;95102.31;;;33.15;39.96
21182;BME280;10749;46.296;7.524;2022-07-21T13:02:10;95095.75;;;33.24;40.39
21182;BME280;10749;46.296;7.524;2022-07-21T13:04:35;95082.53;;;33.26;40.03
21182;BME280;10749;46.296;7.524;2022-07-21T13:07:01;95086.38;;;33.17;38.96
21182;BME280;10749;46.296;7.524;2022-07-21T13:09:26;95080.59;;;33.27;39.42
21182;BME280;10749;46.296;7.524;2022-07-21T13:11:52;95082.72;;;33.38;38.95
21182;BME280;10749;46.296;7.524;2022-07-21T13:14:18;95081.78;;;33.43;39.13
21182;BME280;10749;46.296;7.524;2022-07-21T13:16:43;95080.88;;;33.56;38.88
21182;BME280;10749;46.296;7.524;2022-07-21T13:19:08;95086.69;;;33.63;38.76
21182;BME280;10749;46.296;7.524;2022-07-21T13:21:34;95079.28;;;33.64;38.52
21182;BME280;10749;46.296;7.524;2022-07-21T13:23:59;95066.34;;;33.64;38.19